sensor_id;sensor_type;location;lat;lon;timestamp;pressure;altitude;pressure_sealevel;temperature
19040;BMP180;9652;49.014;12.052;2022-10-26T00:01:42;98042.00;;;12.50
19040;BMP180;9652;49.014;12.052;2022-10-26T00:04:09;98055.00;;;12.50
19040;BMP180;9652;49.014;12.052;2022-10-26T00:06:36;98044.00;;;12.50
19040;BMP180;9652;49.014;12.052;2022-10-26T00:09:03;98054.00;;;12.50
19040;BMP180;9652;49.014;12.052;2022-10-26T00:11:32;98049.00;;;12.50
19040;BMP180;9652;49.014;12.052;2022-10-26T00:13:59;98060.00;;;12.50
19040;BMP180;9652;49.014;12.052;2022-10-26T00:16:27;98045.00;;;12.50
19040;BMP180;9652;49.014;12.052;2022-10-26T00:18:54;98044.00;;;12.40
19040;BMP180;9652;49.014;12.052;2022-10-26T00:21:21;98040.00;;;12.40
19040;BMP180;9652;49.014;12.052;2022-10-26T00:23:48;98044.00;;;12.40
19040;BMP180;9652;49.014;12.052;2022-10-26T00:26:15;98044.00;;;12.40
19040;BMP180;9652;49.014;12.052;2022-10-26T00:28:43;98046.00;;;12.40
19040;BMP180;9652;49.014;12.052;2022-10-26T00:31:13;98049.00;;;12.40
19040;BMP180;9652;49.014;12.052;2022-10-26T00:33:41;98050.00;;;12.40
19040;BMP180;9652;49.014;12.052;2022-10-26T00:36:09;98045.00;;;12.40
19040;BMP180;9652;49.014;12.052;2022-10-26T00:38:38;98053.00;;;12.40
19040;BMP180;9652;49.014;12.052;2022-10-26T00:41:14;98047.00;;;12.40
19040;BMP180;9652;49.014;12.052;2022-10-26T00:43:43;98037.00;;;12.40
19040;BMP180;9652;49.014;12.052;2022-10-26T00:46:16;98046.00;;;12.40
19040;BMP180;9652;49.014;12.052;2022-10-26T00:48:50;98048.00;;;12.50
19040;BMP180;9652;49.014;12.052;2022-10-26T00:51:24;98044.00;;;12.50
19040;BMP180;9652;49.014;12.052;2022-10-26T00:53:55;98034.00;;;12.50
19040;BMP180;9652;49.014;12.052;2022-10-26T00:56:23;98033.00;;;12.50
19040;BMP180;9652;49.014;12.052;2022-10-26T00:58:52;98012.00;;;12.60
19040;BMP180;9652;49.014;12.052;2022-10-26T01:01:20;98036.00;;;12.60
19040;BMP180;9652;49.014;12.052;2022-10-26T01:03:47;98028.00;;;12.70
19040;BMP180;9652;49.014;12.052;2022-10-26T01:06:15;98017.00;;;12.70
19040;BMP180;9652;49.014;12.052;2022-10-26T01:08:43;98004.00;;;12.70
19040;BMP180;9652;49.014;12.052;2022-10-26T01:11:11;98008.00;;;12.70
19040;BMP180;9652;49.014;12.052;2022-10-26T01:13:42;98005.00;;;12.80
19040;BMP180;9652;49.014;12.052;2022-10-26T01:16:35;98002.00;;;12.80
19040;BMP180;9652;49.014;12.052;2022-10-26T01:19:41;98010.00;;;12.80
19040;BMP180;9652;49.014;12.052;2022-10-26T01:22:21;98010.00;;;12.90
19040;BMP180;9652;49.014;12.052;2022-10-26T01:25:08;98026.00;;;12.90
19040;BMP180;9652;49.014;12.052;2022-10-26T01:27:40;98003.00;;;12.90
19040;BMP180;9652;49.014;12.052;2022-10-26T01:30:29;98015.00;;;12.90
19040;BMP180;9652;49.014;12.052;2022-10-26T01:33:32;97997.00;;;12.90
19040;BMP180;9652;49.014;12.052;2022-10-26T01:36:11;98008.00;;;12.90
19040;BMP180;9652;49.014;12.052;2022-10-26T01:38:55;98009.00;;;13.00
19040;BMP180;9652;49.014;12.052;2022-10-26T01:41:28;98003.00;;;13.00
19040;BMP180;9652;49.014;12.052;2022-10-26T01:44:04;98010.00;;;13.00
19040;BMP180;9652;49.014;12.052;2022-10-26T01:46:38;98001.00;;;13.00
19040;BMP180;9652;49.014;12.052;2022-10-26T01:49:09;98003.00;;;13.00
19040;BMP180;9652;49.014;12.052;2022-10-26T01:51:40;97990.00;;;12.70
19040;BMP180;9652;49.014;12.052;2022-10-26T01:54:08;97995.00;;;13.10
19040;BMP180;9652;49.014;12.052;2022-10-26T01:56:40;97986.00;;;13.10
19040;BMP180;9652;49.014;12.052;2022-10-26T01:59:25;97989.00;;;13.10
19040;BMP180;9652;49.014;12.052;2022-10-26T02:02:36;97993.00;;;13.10
19040;BMP180;9652;49.014;12.052;2022-10-26T02:05:32;97991.00;;;13.20
19040;BMP180;9652;49.014;12.052;2022-10-26T02:08:42;97993.00;;;13.20
19040;BMP180;9652;49.014;12.052;2022-10-26T02:11:26;97986.00;;;13.20
19040;BMP180;9652;49.014;12.052;2022-10-26T02:14:07;97969.00;;;13.20
19040;BMP180;9652;49.014;12.052;2022-10-26T02:16:48;97964.00;;;13.20
19040;BMP180;9652;49.014;12.052;2022-10-26T02:19:32;97965.00;;;13.20
19040;BMP180;9652;49.014;12.052;2022-10-26T02:22:13;97963.00;;;13.30
19040;BMP180;9652;49.014;12.052;2022-10-26T02:24:43;97995.00;;;13.30
19040;BMP180;9652;49.014;12.052;2022-10-26T02:27:17;97998.00;;;13.30
19040;BMP180;9652;49.014;12.052;2022-10-26T02:29:49;98030.00;;;13.30
19040;BMP180;9652;49.014;12.052;2022-10-26T02:32:18;98028.00;;;13.40
19040;BMP180;9652;49.014;12.052;2022-10-26T02:34:50;98023.00;;;13.40
19040;BMP180;9652;49.014;12.052;2022-10-26T02:37:20;98026.00;;;13.40
19040;BMP180;9652;49.014;12.052;2022-10-26T02:39:51;98024.00;;;13.40
19040;BMP180;9652;49.014;12.052;2022-10-26T02:42:21;97991.00;;;13.40
19040;BMP180;9652;49.014;12.052;2022-10-26T02:44:53;98006.00;;;13.40
19040;BMP180;9652;49.014;12.052;2022-10-26T02:47:23;98006.00;;;13.50
19040;BMP180;9652;49.014;12.052;2022-10-26T02:49:54;98001.00;;;13.50
19040;BMP180;9652;49.014;12.052;2022-10-26T02:52:27;97995.00;;;13.50
19040;BMP180;9652;49.014;12.052;2022-10-26T02:55:04;97991.00;;;13.50
19040;BMP180;9652;49.014;12.052;2022-10-26T02:57:37;97988.00;;;13.50
19040;BMP180;9652;49.014;12.052;2022-10-26T03:00:07;97994.00;;;13.60
19040;BMP180;9652;49.014;12.052;2022-10-26T03:02:35;97987.00;;;13.60
19040;BMP180;9652;49.014;12.052;2022-10-26T03:05:13;97983.00;;;13.60
19040;BMP180;9652;49.014;12.052;2022-10-26T03:07:42;97986.00;;;13.60
19040;BMP180;9652;49.014;12.052;2022-10-26T03:10:10;97981.00;;;13.70
19040;BMP180;9652;49.014;12.052;2022-10-26T03:12:37;97977.00;;;13.70
19040;BMP180;9652;49.014;12.052;2022-10-26T03:15:05;97988.00;;;13.70
19040;BMP180;9652;49.014;12.052;2022-10-26T03:17:32;97993.00;;;13.70
19040;BMP180;9652;49.014;12.052;2022-10-26T03:19:59;97973.00;;;13.70
19040;BMP180;9652;49.014;12.052;2022-10-26T03:22:28;97975.00;;;13.70
19040;BMP180;9652;49.014;12.052;2022-10-26T03:24:55;97986.00;;;13.80
19040;BMP180;9652;49.014;12.052;2022-10-26T03:27:22;98000.00;;;13.80
19040;BMP180;9652;49.014;12.052;2022-10-26T03:29:49;98000.00;;;13.80
19040;BMP180;9652;49.014;12.052;2022-10-26T03:32:16;97986.00;;;13.80
19040;BMP180;9652;49.014;12.052;2022-10-26T03:34:43;98000.00;;;13.90
19040;BMP180;9652;49.014;12.052;2022-10-26T03:37:10;97994.00;;;13.90
19040;BMP180;9652;49.014;12.052;2022-10-26T03:39:39;97996.00;;;13.90
19040;BMP180;9652;49.014;12.052;2022-10-26T03:42:06;97994.00;;;13.90
19040;BMP180;9652;49.014;12.052;2022-10-26T03:44:33;97991.00;;;13.90
19040;BMP180;9652;49.014;12.052;2022-10-26T03:47:00;98002.00;;;13.90
19040;BMP180;9652;49.014;12.052;2022-10-26T03:49:27;97999.00;;;13.90
19040;BMP180;9652;49.014;12.052;2022-10-26T03:51:54;98011.00;;;13.90
19040;BMP180;9652;49.014;12.052;2022-10-26T03:54:21;97998.00;;;14.00
19040;BMP180;9652;49.014;12.052;2022-10-26T03:56:51;97991.00;;;14.00
19040;BMP180;9652;49.014;12.052;2022-10-26T03:59:18;97974.00;;;14.00
19040;BMP180;9652;49.014;12.052;2022-10-26T04:01:45;97991.00;;;14.00
19040;BMP180;9652;49.014;12.052;2022-10-26T04:04:12;97991.00;;;14.00
19040;BMP180;9652;49.014;12.052;2022-10-26T04:06:40;97987.00;;;14.00
19040;BMP180;9652;49.014;12.052;2022-10-26T04:09:07;97985.00;;;14.00
19040;BMP180;9652;49.014;12.052;2022-10-26T04:11:34;97992.00;;;14.10
19040;BMP180;9652;49.014;12.052;2022-10-26T04:14:02;98003.00;;;14.10
19040;BMP180;9652;49.014;12.052;2022-10-26T04:16:29;98005.00;;;14.10
19040;BMP180;9652;49.014;12.052;2022-10-26T04:18:56;97999.00;;;14.10
19040;BMP180;9652;49.014;12.052;2022-10-26T04:21:23;97992.00;;;14.10
19040;BMP180;9652;49.014;12.052;2022-10-26T04:23:50;98004.00;;;14.10
19040;BMP180;9652;49.014;12.052;2022-10-26T04:26:18;98006.00;;;14.10
19040;BMP180;9652;49.014;12.052;2022-10-26T04:28:45;98022.00;;;14.10
19040;BMP180;9652;49.014;12.052;2022-10-26T04:31:13;98028.00;;;14.10
19040;BMP180;9652;49.014;12.052;2022-10-26T04:33:40;98027.00;;;14.20
19040;BMP180;9652;49.014;12.052;2022-10-26T04:36:08;98030.00;;;14.20
19040;BMP180;9652;49.014;12.052;2022-10-26T04:38:36;98027.00;;;14.20
19040;BMP180;9652;49.014;12.052;2022-10-26T04:41:03;98018.00;;;14.20
19040;BMP180;9652;49.014;12.052;2022-10-26T04:43:30;98024.00;;;14.20
19040;BMP180;9652;49.014;12.052;2022-10-26T04:45:57;98023.00;;;14.20
19040;BMP180;9652;49.014;12.052;2022-10-26T04:48:26;98009.00;;;14.20
19040;BMP180;9652;49.014;12.052;2022-10-26T04:50:53;98008.00;;;14.20
19040;BMP180;9652;49.014;12.052;2022-10-26T04:53:20;98008.00;;;14.20
19040;BMP180;9652;49.014;12.052;2022-10-26T04:55:47;98016.00;;;14.20
19040;BMP180;9652;49.014;12.052;2022-10-26T04:58:14;98028.00;;;14.20
19040;BMP180;9652;49.014;12.052;2022-10-26T05:00:41;98015.00;;;14.20
19040;BMP180;9652;49.014;12.052;2022-10-26T05:03:09;98016.00;;;14.30
19040;BMP180;9652;49.014;12.052;2022-10-26T05:05:37;98035.00;;;14.30
19040;BMP180;9652;49.014;12.052;2022-10-26T05:08:05;98026.00;;;14.30
19040;BMP180;9652;49.014;12.052;2022-10-26T05:10:32;98030.00;;;14.30
19040;BMP180;9652;49.014;12.052;2022-10-26T05:13:00;98015.00;;;14.30
19040;BMP180;9652;49.014;12.052;2022-10-26T05:15:28;98026.00;;;14.30
19040;BMP180;9652;49.014;12.052;2022-10-26T05:17:56;98008.00;;;14.30
19040;BMP180;9652;49.014;12.052;2022-10-26T05:20:25;98027.00;;;14.30
19040;BMP180;9652;49.014;12.052;2022-10-26T05:22:56;98032.00;;;14.30
19040;BMP180;9652;49.014;12.052;2022-10-26T05:25:24;98035.00;;;14.30
19040;BMP180;9652;49.014;12.052;2022-10-26T05:27:51;98026.00;;;14.40
19040;BMP180;9652;49.014;12.052;2022-10-26T05:30:18;98038.00;;;14.40
19040;BMP180;9652;49.014;12.052;2022-10-26T05:32:53;98046.00;;;14.40
19040;BMP180;9652;49.014;12.052;2022-10-26T05:35:20;98045.00;;;14.40
19040;BMP180;9652;49.014;12.052;2022-10-26T05:37:47;98005.00;;;14.40
19040;BMP180;9652;49.014;12.052;2022-10-26T05:40:15;98045.00;;;14.40
19040;BMP180;9652;49.014;12.052;2022-10-26T05:42:43;98047.00;;;14.40
19040;BMP180;9652;49.014;12.052;2022-10-26T05:45:10;98043.00;;;14.40
19040;BMP180;9652;49.014;12.052;2022-10-26T05:47:38;98062.00;;;14.40
19040;BMP180;9652;49.014;12.052;2022-10-26T05:50:07;98062.00;;;14.40
19040;BMP180;9652;49.014;12.052;2022-10-26T05:52:38;98056.00;;;14.40
19040;BMP180;9652;49.014;12.052;2022-10-26T05:55:07;98072.00;;;14.40
19040;BMP180;9652;49.014;12.052;2022-10-26T05:57:37;98068.00;;;14.40
19040;BMP180;9652;49.014;12.052;2022-10-26T06:00:09;98080.00;;;14.40
19040;BMP180;9652;49.014;12.052;2022-10-26T06:02:56;98090.00;;;14.50
19040;BMP180;9652;49.014;12.052;2022-10-26T06:05:31;98089.00;;;14.40
19040;BMP180;9652;49.014;12.052;2022-10-26T06:08:00;98104.00;;;14.50
19040;BMP180;9652;49.014;12.052;2022-10-26T06:10:27;98092.00;;;14.50
19040;BMP180;9652;49.014;12.052;2022-10-26T06:12:57;98092.00;;;14.50
19040;BMP180;9652;49.014;12.052;2022-10-26T06:15:24;98104.00;;;14.50
19040;BMP180;9652;49.014;12.052;2022-10-26T06:18:02;98115.00;;;14.50
19040;BMP180;9652;49.014;12.052;2022-10-26T06:20:47;98110.00;;;14.50
19040;BMP180;9652;49.014;12.052;2022-10-26T06:23:40;98125.00;;;14.50
19040;BMP180;9652;49.014;12.052;2022-10-26T06:26:24;98147.00;;;14.60
19040;BMP180;9652;49.014;12.052;2022-10-26T06:29:16;98140.00;;;14.60
19040;BMP180;9652;49.014;12.052;2022-10-26T06:31:46;98148.00;;;14.60
19040;BMP180;9652;49.014;12.052;2022-10-26T06:34:21;98144.00;;;14.60
19040;BMP180;9652;49.014;12.052;2022-10-26T06:36:50;98141.00;;;14.60
19040;BMP180;9652;49.014;12.052;2022-10-26T06:39:18;98123.00;;;14.60
19040;BMP180;9652;49.014;12.052;2022-10-26T06:41:47;98135.00;;;14.70
19040;BMP180;9652;49.014;12.052;2022-10-26T06:44:21;98130.00;;;14.70
19040;BMP180;9652;49.014;12.052;2022-10-26T06:46:58;98121.00;;;14.70
19040;BMP180;9652;49.014;12.052;2022-10-26T06:49:31;98112.00;;;14.70
19040;BMP180;9652;49.014;12.052;2022-10-26T06:52:10;98093.00;;;14.80
19040;BMP180;9652;49.014;12.052;2022-10-26T06:54:47;98095.00;;;14.80
19040;BMP180;9652;49.014;12.052;2022-10-26T06:57:18;98092.00;;;14.90
19040;BMP180;9652;49.014;12.052;2022-10-26T06:59:51;98080.00;;;14.90
19040;BMP180;9652;49.014;12.052;2022-10-26T07:02:19;98094.00;;;14.90
19040;BMP180;9652;49.014;12.052;2022-10-26T07:04:46;98076.00;;;14.90
19040;BMP180;9652;49.014;12.052;2022-10-26T07:07:17;98088.00;;;14.90
19040;BMP180;9652;49.014;12.052;2022-10-26T07:09:45;98106.00;;;15.00
19040;BMP180;9652;49.014;12.052;2022-10-26T07:12:13;98117.00;;;15.00
19040;BMP180;9652;49.014;12.052;2022-10-26T07:14:40;98107.00;;;15.10
19040;BMP180;9652;49.014;12.052;2022-10-26T07:17:09;98113.00;;;15.10
19040;BMP180;9652;49.014;12.052;2022-10-26T07:19:36;98110.00;;;15.10
19040;BMP180;9652;49.014;12.052;2022-10-26T07:22:05;98100.00;;;15.10
19040;BMP180;9652;49.014;12.052;2022-10-26T07:24:32;98102.00;;;15.10
19040;BMP180;9652;49.014;12.052;2022-10-26T07:26:59;98115.00;;;15.10
19040;BMP180;9652;49.014;12.052;2022-10-26T07:29:27;98121.00;;;15.10
19040;BMP180;9652;49.014;12.052;2022-10-26T07:31:54;98117.00;;;15.10
19040;BMP180;9652;49.014;12.052;2022-10-26T07:34:23;98127.00;;;15.10
19040;BMP180;9652;49.014;12.052;2022-10-26T07:36:50;98133.00;;;15.10
19040;BMP180;9652;49.014;12.052;2022-10-26T07:39:17;98137.00;;;15.10
19040;BMP180;9652;49.014;12.052;2022-10-26T07:41:45;98142.00;;;15.10
19040;BMP180;9652;49.014;12.052;2022-10-26T07:44:12;98165.00;;;15.10
19040;BMP180;9652;49.014;12.052;2022-10-26T07:46:39;98157.00;;;15.20
19040;BMP180;9652;49.014;12.052;2022-10-26T07:49:06;98152.00;;;15.20
19040;BMP180;9652;49.014;12.052;2022-10-26T07:51:35;98149.00;;;15.30
19040;BMP180;9652;49.014;12.052;2022-10-26T07:54:02;98151.00;;;15.40
19040;BMP180;9652;49.014;12.052;2022-10-26T07:56:29;98153.00;;;15.50
19040;BMP180;9652;49.014;12.052;2022-10-26T07:58:56;98158.00;;;15.60
19040;BMP180;9652;49.014;12.052;2022-10-26T08:01:24;98157.00;;;15.70
19040;BMP180;9652;49.014;12.052;2022-10-26T08:03:52;98157.00;;;15.80
19040;BMP180;9652;49.014;12.052;2022-10-26T08:06:20;98156.00;;;15.90
19040;BMP180;9652;49.014;12.052;2022-10-26T08:08:49;98156.00;;;16.00
19040;BMP180;9652;49.014;12.052;2022-10-26T08:11:17;98147.00;;;16.10
19040;BMP180;9652;49.014;12.052;2022-10-26T08:13:44;98163.00;;;16.10
19040;BMP180;9652;49.014;12.052;2022-10-26T08:16:11;98164.00;;;16.20
19040;BMP180;9652;49.014;12.052;2022-10-26T08:18:39;98153.00;;;16.20
19040;BMP180;9652;49.014;12.052;2022-10-26T08:21:10;98171.00;;;16.30
19040;BMP180;9652;49.014;12.052;2022-10-26T08:23:38;98151.00;;;16.40
19040;BMP180;9652;49.014;12.052;2022-10-26T08:26:08;98166.00;;;16.40
19040;BMP180;9652;49.014;12.052;2022-10-26T08:28:37;98164.00;;;16.50
19040;BMP180;9652;49.014;12.052;2022-10-26T08:31:05;98160.00;;;16.40
19040;BMP180;9652;49.014;12.052;2022-10-26T08:33:33;98165.00;;;16.60
19040;BMP180;9652;49.014;12.052;2022-10-26T08:36:03;98163.00;;;16.60
19040;BMP180;9652;49.014;12.052;2022-10-26T08:38:30;98171.00;;;16.70
19040;BMP180;9652;49.014;12.052;2022-10-26T08:41:05;98168.00;;;16.70
19040;BMP180;9652;49.014;12.052;2022-10-26T08:43:39;98175.00;;;16.80
19040;BMP180;9652;49.014;12.052;2022-10-26T08:46:14;98178.00;;;16.90
19040;BMP180;9652;49.014;12.052;2022-10-26T08:48:47;98170.00;;;16.90
19040;BMP180;9652;49.014;12.052;2022-10-26T08:51:19;98176.00;;;16.90
19040;BMP180;9652;49.014;12.052;2022-10-26T08:53:53;98176.00;;;17.00
19040;BMP180;9652;49.014;12.052;2022-10-26T08:56:25;98185.00;;;17.00
19040;BMP180;9652;49.014;12.052;2022-10-26T08:58:56;98188.00;;;17.10
19040;BMP180;9652;49.014;12.052;2022-10-26T09:01:24;98184.00;;;17.10
19040;BMP180;9652;49.014;12.052;2022-10-26T09:03:51;98181.00;;;17.20
19040;BMP180;9652;49.014;12.052;2022-10-26T09:06:31;98181.00;;;17.20
19040;BMP180;9652;49.014;12.052;2022-10-26T09:09:09;98181.00;;;17.30
19040;BMP180;9652;49.014;12.052;2022-10-26T09:11:56;98169.00;;;17.40
19040;BMP180;9652;49.014;12.052;2022-10-26T09:14:46;98167.00;;;17.50
19040;BMP180;9652;49.014;12.052;2022-10-26T09:17:30;98166.00;;;17.50
19040;BMP180;9652;49.014;12.052;2022-10-26T09:20:28;98173.00;;;17.60
19040;BMP180;9652;49.014;12.052;2022-10-26T09:23:14;98178.00;;;17.60
19040;BMP180;9652;49.014;12.052;2022-10-26T09:25:52;98179.00;;;17.60
19040;BMP180;9652;49.014;12.052;2022-10-26T09:28:20;98177.00;;;17.70
19040;BMP180;9652;49.014;12.052;2022-10-26T09:30:49;98176.00;;;17.70
19040;BMP180;9652;49.014;12.052;2022-10-26T09:33:21;98179.00;;;17.70
19040;BMP180;9652;49.014;12.052;2022-10-26T09:35:55;98178.00;;;17.70
19040;BMP180;9652;49.014;12.052;2022-10-26T09:38:29;98187.00;;;17.70
19040;BMP180;9652;49.014;12.052;2022-10-26T09:41:03;98188.00;;;17.70
19040;BMP180;9652;49.014;12.052;2022-10-26T09:43:38;98187.00;;;17.70
19040;BMP180;9652;49.014;12.052;2022-10-26T09:46:17;98184.00;;;17.70
19040;BMP180;9652;49.014;12.052;2022-10-26T09:48:51;98190.00;;;17.70
19040;BMP180;9652;49.014;12.052;2022-10-26T09:51:20;98187.00;;;17.80
19040;BMP180;9652;49.014;12.052;2022-10-26T09:53:48;98193.00;;;17.80
19040;BMP180;9652;49.014;12.052;2022-10-26T09:56:17;98193.00;;;17.90
19040;BMP180;9652;49.014;12.052;2022-10-26T09:58:49;98194.00;;;17.90
19040;BMP180;9652;49.014;12.052;2022-10-26T10:01:28;98202.00;;;18.00
19040;BMP180;9652;49.014;12.052;2022-10-26T10:04:18;98204.00;;;17.80
19040;BMP180;9652;49.014;12.052;2022-10-26T10:06:51;98202.00;;;18.10
19040;BMP180;9652;49.014;12.052;2022-10-26T10:09:20;98202.00;;;18.20
19040;BMP180;9652;49.014;12.052;2022-10-26T10:11:51;98213.00;;;18.30
19040;BMP180;9652;49.014;12.052;2022-10-26T10:14:26;98208.00;;;18.40
19040;BMP180;9652;49.014;12.052;2022-10-26T10:16:58;98210.00;;;18.50
19040;BMP180;9652;49.014;12.052;2022-10-26T10:19:28;98204.00;;;18.60
19040;BMP180;9652;49.014;12.052;2022-10-26T10:21:59;98212.00;;;18.70
19040;BMP180;9652;49.014;12.052;2022-10-26T10:24:29;98202.00;;;18.80
19040;BMP180;9652;49.014;12.052;2022-10-26T10:27:03;98203.00;;;18.90
19040;BMP180;9652;49.014;12.052;2022-10-26T10:29:33;98210.00;;;19.00
19040;BMP180;9652;49.014;12.052;2022-10-26T10:32:15;98201.00;;;19.00
19040;BMP180;9652;49.014;12.052;2022-10-26T10:34:43;98200.00;;;19.10
19040;BMP180;9652;49.014;12.052;2022-10-26T10:37:24;98187.00;;;19.20
19040;BMP180;9652;49.014;12.052;2022-10-26T10:39:57;98193.00;;;19.20
19040;BMP180;9652;49.014;12.052;2022-10-26T10:42:29;98192.00;;;19.30
19040;BMP180;9652;49.014;12.052;2022-10-26T10:44:58;98205.00;;;19.40
19040;BMP180;9652;49.014;12.052;2022-10-26T10:47:31;98207.00;;;19.50
19040;BMP180;9652;49.014;12.052;2022-10-26T10:50:03;98206.00;;;19.50
19040;BMP180;9652;49.014;12.052;2022-10-26T10:52:34;98208.00;;;19.60
19040;BMP180;9652;49.014;12.052;2022-10-26T10:55:17;98213.00;;;19.60
19040;BMP180;9652;49.014;12.052;2022-10-26T10:58:03;98208.00;;;19.70
19040;BMP180;9652;49.014;12.052;2022-10-26T11:00:36;98206.00;;;19.70
19040;BMP180;9652;49.014;12.052;2022-10-26T11:03:23;98211.00;;;19.70
19040;BMP180;9652;49.014;12.052;2022-10-26T11:06:06;98214.00;;;19.80
19040;BMP180;9652;49.014;12.052;2022-10-26T11:08:40;98224.00;;;19.80
19040;BMP180;9652;49.014;12.052;2022-10-26T11:11:13;98211.00;;;19.80
19040;BMP180;9652;49.014;12.052;2022-10-26T11:13:49;98228.00;;;19.90
19040;BMP180;9652;49.014;12.052;2022-10-26T11:16:23;98225.00;;;19.80
19040;BMP180;9652;49.014;12.052;2022-10-26T11:18:58;98218.00;;;19.90
19040;BMP180;9652;49.014;12.052;2022-10-26T11:21:29;98223.00;;;20.00
19040;BMP180;9652;49.014;12.052;2022-10-26T11:24:11;98228.00;;;20.00
19040;BMP180;9652;49.014;12.052;2022-10-26T11:26:48;98218.00;;;20.00
19040;BMP180;9652;49.014;12.052;2022-10-26T11:29:35;98219.00;;;20.10
19040;BMP180;9652;49.014;12.052;2022-10-26T11:32:14;98221.00;;;20.10
19040;BMP180;9652;49.014;12.052;2022-10-26T11:34:50;98215.00;;;20.10
19040;BMP180;9652;49.014;12.052;2022-10-26T11:37:27;98228.00;;;20.10
19040;BMP180;9652;49.014;12.052;2022-10-26T11:40:15;98236.00;;;20.20
19040;BMP180;9652;49.014;12.052;2022-10-26T11:42:51;98239.00;;;20.20
19040;BMP180;9652;49.014;12.052;2022-10-26T11:45:25;98241.00;;;20.20
19040;BMP180;9652;49.014;12.052;2022-10-26T11:48:01;98232.00;;;20.20
19040;BMP180;9652;49.014;12.052;2022-10-26T11:50:37;98247.00;;;20.20
19040;BMP180;9652;49.014;12.052;2022-10-26T11:53:11;98246.00;;;20.10
19040;BMP180;9652;49.014;12.052;2022-10-26T11:55:41;98235.00;;;20.20
19040;BMP180;9652;49.014;12.052;2022-10-26T11:58:10;98252.00;;;20.20
19040;BMP180;9652;49.014;12.052;2022-10-26T12:00:45;98252.00;;;20.10
19040;BMP180;9652;49.014;12.052;2022-10-26T12:03:17;98255.00;;;20.10
19040;BMP180;9652;49.014;12.052;2022-10-26T12:05:50;98244.00;;;20.20
19040;BMP180;9652;49.014;12.052;2022-10-26T12:08:23;98256.00;;;20.20
19040;BMP180;9652;49.014;12.052;2022-10-26T12:11:03;98253.00;;;20.20
19040;BMP180;9652;49.014;12.052;2022-10-26T12:13:37;98264.00;;;20.30
19040;BMP180;9652;49.014;12.052;2022-10-26T12:16:13;98269.00;;;20.30
19040;BMP180;9652;49.014;12.052;2022-10-26T12:18:51;98262.00;;;20.40
19040;BMP180;9652;49.014;12.052;2022-10-26T12:21:26;98267.00;;;20.40
19040;BMP180;9652;49.014;12.052;2022-10-26T12:23:57;98279.00;;;20.40
19040;BMP180;9652;49.014;12.052;2022-10-26T12:26:44;98269.00;;;20.40
19040;BMP180;9652;49.014;12.052;2022-10-26T12:32:51;98272.00;;;20.40
19040;BMP180;9652;49.014;12.052;2022-10-26T12:35:37;98281.00;;;20.40
19040;BMP180;9652;49.014;12.052;2022-10-26T12:41:28;98285.00;;;20.40
19040;BMP180;9652;49.014;12.052;2022-10-26T12:43:57;98285.00;;;20.40
19040;BMP180;9652;49.014;12.052;2022-10-26T12:46:38;98275.00;;;20.40
19040;BMP180;9652;49.014;12.052;2022-10-26T12:52:51;98283.00;;;20.40
19040;BMP180;9652;49.014;12.052;2022-10-26T12:55:46;98275.00;;;20.40
19040;BMP180;9652;49.014;12.052;2022-10-26T12:58:51;98250.00;;;20.50
19040;BMP180;9652;49.014;12.052;2022-10-26T13:01:56;98283.00;;;20.50
19040;BMP180;9652;49.014;12.052;2022-10-26T13:04:56;98284.00;;;20.50
19040;BMP180;9652;49.014;12.052;2022-10-26T13:07:35;98278.00;;;20.50
19040;BMP180;9652;49.014;12.052;2022-10-26T13:10:16;98288.00;;;20.50
19040;BMP180;9652;49.014;12.052;2022-10-26T13:12:50;98286.00;;;20.50
19040;BMP180;9652;49.014;12.052;2022-10-26T13:15:24;98290.00;;;20.40
19040;BMP180;9652;49.014;12.052;2022-10-26T13:17:57;98284.00;;;20.50
19040;BMP180;9652;49.014;12.052;2022-10-26T13:20:25;98282.00;;;20.40
19040;BMP180;9652;49.014;12.052;2022-10-26T13:22:53;98275.00;;;20.40
19040;BMP180;9652;49.014;12.052;2022-10-26T13:25:24;98271.00;;;20.40
19040;BMP180;9652;49.014;12.052;2022-10-26T13:28:03;98256.00;;;20.40
19040;BMP180;9652;49.014;12.052;2022-10-26T13:30:44;98285.00;;;20.40
19040;BMP180;9652;49.014;12.052;2022-10-26T13:33:21;98290.00;;;20.30
19040;BMP180;9652;49.014;12.052;2022-10-26T13:35:54;98292.00;;;20.30
19040;BMP180;9652;49.014;12.052;2022-10-26T13:38:28;98300.00;;;20.30
19040;BMP180;9652;49.014;12.052;2022-10-26T13:41:05;98299.00;;;20.20
19040;BMP180;9652;49.014;12.052;2022-10-26T13:43:36;98308.00;;;20.20
19040;BMP180;9652;49.014;12.052;2022-10-26T13:46:05;98309.00;;;20.20
19040;BMP180;9652;49.014;12.052;2022-10-26T13:48:38;98308.00;;;20.10
19040;BMP180;9652;49.014;12.052;2022-10-26T13:51:18;98300.00;;;20.10
19040;BMP180;9652;49.014;12.052;2022-10-26T13:53:51;98301.00;;;20.10
19040;BMP180;9652;49.014;12.052;2022-10-26T13:56:29;98307.00;;;20.00
19040;BMP180;9652;49.014;12.052;2022-10-26T13:59:01;98317.00;;;20.10
19040;BMP180;9652;49.014;12.052;2022-10-26T14:01:31;98321.00;;;20.00
19040;BMP180;9652;49.014;12.052;2022-10-26T14:03:58;98323.00;;;20.00
19040;BMP180;9652;49.014;12.052;2022-10-26T14:06:33;98323.00;;;20.00
19040;BMP180;9652;49.014;12.052;2022-10-26T14:09:04;98334.00;;;20.00
19040;BMP180;9652;49.014;12.052;2022-10-26T14:11:42;98321.00;;;19.90
19040;BMP180;9652;49.014;12.052;2022-10-26T14:14:16;98326.00;;;19.90
19040;BMP180;9652;49.014;12.052;2022-10-26T14:16:49;98316.00;;;19.90
19040;BMP180;9652;49.014;12.052;2022-10-26T14:19:24;98325.00;;;19.90
19040;BMP180;9652;49.014;12.052;2022-10-26T14:21:53;98318.00;;;19.80
19040;BMP180;9652;49.014;12.052;2022-10-26T14:24:23;98327.00;;;19.80
19040;BMP180;9652;49.014;12.052;2022-10-26T14:26:51;98327.00;;;19.80
19040;BMP180;9652;49.014;12.052;2022-10-26T14:29:21;98322.00;;;19.80
19040;BMP180;9652;49.014;12.052;2022-10-26T14:31:51;98320.00;;;19.80
19040;BMP180;9652;49.014;12.052;2022-10-26T14:34:20;98321.00;;;19.80
19040;BMP180;9652;49.014;12.052;2022-10-26T14:36:51;98311.00;;;19.50
19040;BMP180;9652;49.014;12.052;2022-10-26T14:39:29;98335.00;;;19.80
19040;BMP180;9652;49.014;12.052;2022-10-26T14:42:00;98337.00;;;19.80
19040;BMP180;9652;49.014;12.052;2022-10-26T14:44:29;98332.00;;;19.90
19040;BMP180;9652;49.014;12.052;2022-10-26T14:46:57;98337.00;;;19.90
19040;BMP180;9652;49.014;12.052;2022-10-26T14:49:26;98340.00;;;19.90
19040;BMP180;9652;49.014;12.052;2022-10-26T14:51:57;98339.00;;;19.90